Trona, CA (93592)

2:57 PM PDT on September 16, 2014 (GMT -0700)
MesoWest Trona-Athol & Telegraph CA US CARB | Change Station
CLOSE
Current Station
Personal Weather Station
Location: Trona, CA
Elevation: 1633 ft
Nearby Weather Stations
Active Advisory: Flash Flood Warning, Areal Flood Advisory Active Notice: Record Report

Elev 1633 ft 35.77 °N, 117.37 °W | Updated 652 days ago

Clear
Clear
109 °F
Feels Like 109 °F
N
9
Wind Variable Wind from South
Gusts 12 mph

Today
High -- | Low -- °F
--% Chance of Precip.
Yesterday
High -- | Low -- °F
Precip. -- in
6:32 AM 6:55 PM
Last Quarter, 42% visible
Pressure 29.77 in
Visibility 10.0 miles
Clouds Few 8000 ft
Dew Point 45 °F
Humidity 11%
Rainfall -9999.00 in
Snow Depth 0 in , 0 in , 1 in
UV 8 out of 12
Pollen 7.60 out of 12
Ozone Moderate
Flu Activity Not available.
METAR KNID 162056Z VRB05KT 10SM FEW080 38/08 A2985 RMK AO2 SLP080 T03830083 57023 $

More Conditions Fewer Conditions

Pressure 29.77 in
Visibility 10.0 miles
Clouds Few 8000 ft
Dew Point 45 °F
Humidity 11%
Rainfall -9999.00 in
Snow Depth 0 in , 0 in , 1 in
UV 8 out of 12
Pollen 7.60 out of 12
Ozone Moderate
Flu Activity Not available.
METAR KNID 162056Z VRB05KT 10SM FEW080 38/08 A2985 RMK AO2 SLP080 T03830083 57023 $

More Conditions Fewer Conditions

10-Day Weather Forecast

Almanac

Astronomy

Sep. 16, 2014 Rise Set
Actual Time 6:32 AM PDT 6:55 PM PDT
Civil Twilight 6:07 AM PDT 7:20 PM PDT
Nautical Twilight 5:37 AM PDT 7:50 PM PDT
Astronomical Twilight 5:06 AM PDT 8:21 PM PDT
Moon No Moon Rise 2:14 PM PDT
Length of Visible Light 13h 13m
Length of Day
12h 22m
Tomorrow will be 2m 13s shorter.
Last Quarter, 42% of the Moon is Illuminated
Today
Last Quarter
Sep 24
New
Oct 1
First Quarter
Oct 8
Full
Oct 15
Last Quarter

Today's Extremes

State Highs State Lows

Community

WunderPhotos

Upload Photos

1,753,895 photos uploaded!

Nearby

Air Quality

  Air Quality AQ Index Pollutant
Yesterday Good
OZONE
Yesterday Good
PM10
Current Moderate
OZONE
Wednesday Good
PM10
Wednesday Good
OZONE
Wednesday Good
CO
Wednesday Good
NO2

Snow Depth

Station Depth Elevation
Summit Meadow 0 in 9122 ft
Rubicon #2 0 in 7500 ft
CSS Lab 1 in 6900 ft
Adin Mountain 0 in 6200 ft
Leavitt Meadows 1 in 7200 ft

Earthquake Activity

City Distance Mag. Time & Date
Inyokern, California 37 miles 3.2 5:56 PM PDT
2014-09-14
San Jacinto, California 137 miles 3.0 3:16 PM PDT
2014-09-14
Minimum magnitude displayed is 2.5.

Coastal Water Temperatures

Place Temperature
No Stations Reporting

Nearby Weather Stations